Time;durP1;ratioP1;P1;durP2;ratioP2;P2;SDS_P1;SDS_P2;PMS_P1;PMS_P2;Temp;Humidity;BMP_temperature;BMP_pressure;BME280_temperature;BME280_humidity;BME280_pressure;Samples;Min_cycle;Max_cycle;Signal;HPM_P1;HPM_P2
2024/04/10 00:00:12;;;;;;;5.20;2.27;;;9.50;99.90;;;9.20;68.30;99485.16;5415917;26;20467;-72
2024/04/10 00:02:41;;;;;;;4.03;2.10;;;9.40;99.90;;;9.18;69.37;99481.00;5361984;26;20243;-72
2024/04/10 00:05:11;;;;;;;6.13;2.37;;;9.40;99.90;;;9.31;68.83;99486.28;5364557;26;20483;-72
2024/04/10 00:07:37;;;;;;;4.73;2.03;;;9.40;99.90;;;9.31;68.61;99483.69;5349220;26;20536;-72
2024/04/10 00:10:04;;;;;;;5.90;2.00;;;9.30;99.90;;;9.31;68.61;99478.44;5389130;26;20465;-73
2024/04/10 00:12:30;;;;;;;3.40;2.13;;;9.40;99.90;;;9.22;69.22;99477.22;5407143;26;20336;-73
2024/04/10 00:14:56;;;;;;;4.77;2.40;;;9.30;99.90;;;9.24;69.12;99484.06;5433827;26;20475;-72
2024/04/10 00:19:00;;;;;;;4.80;2.47;;;9.30;99.90;;;9.36;68.75;99473.72;5447023;26;20623;-72
2024/04/10 00:21:32;;;;;;;3.77;2.03;;;9.40;99.90;;;9.40;68.38;99469.97;5409235;26;20477;-72
2024/04/10 00:23:57;;;;;;;5.90;2.23;;;9.40;99.90;;;9.41;68.77;99474.28;5427984;26;20248;-72
2024/04/10 00:26:23;;;;;;;5.30;2.10;;;9.40;99.90;;;9.32;68.99;99474.84;5429161;26;20570;-73
2024/04/10 00:28:49;;;;;;;4.40;1.93;;;10.30;99.90;;;9.22;69.44;99479.84;5402492;26;20245;-73
2024/04/10 00:31:15;;;;;;;5.77;2.40;;;9.30;99.90;;;9.32;69.28;99488.81;5412422;26;20288;-73
2024/04/10 00:33:40;;;;;;;4.37;2.10;;;9.30;99.90;;;9.41;69.06;99497.88;5399836;26;20251;-72
2024/04/10 00:36:08;;;;;;;3.90;2.20;;;9.40;99.90;;;9.42;68.91;99502.16;5389577;26;23292;-72
2024/04/10 00:38:33;;;;;;;8.23;2.10;;;9.40;99.90;;;9.39;69.13;99510.22;5394969;26;20243;-72
2024/04/10 00:41:03;;;;;;;3.90;2.17;;;9.40;99.90;;;9.34;69.18;99501.84;5421318;26;20472;-72
2024/04/10 00:43:29;;;;;;;3.67;2.10;;;9.40;99.90;;;9.41;68.98;99508.38;5415587;26;20579;-73
2024/04/10 00:46:16;;;;;;;5.70;2.20;;;9.40;99.90;;;9.54;68.93;99509.25;5426000;26;20479;-73
2024/04/10 00:48:43;;;;;;;6.33;2.57;;;9.50;99.90;;;9.51;68.83;99512.06;5395262;26;20489;-74
2024/04/10 00:51:12;;;;;;;6.97;2.53;;;9.50;99.90;;;9.44;69.33;99516.03;5391697;26;20490;-72
2024/04/10 00:53:39;;;;;;;13.87;2.63;;;9.40;99.90;;;9.29;69.53;99526.53;5386000;26;20494;-72
2024/04/10 00:56:05;;;;;;;4.83;2.20;;;10.40;99.90;;;9.38;69.68;99524.28;5418671;26;20470;-72
2024/04/10 00:58:35;;;;;;;6.47;2.50;;;9.40;99.90;;;9.39;69.68;99531.22;5419126;26;20478;-72
2024/04/10 01:01:01;;;;;;;7.50;2.50;;;9.40;99.90;;;9.32;69.72;99525.50;5381201;26;20286;-72
2024/04/10 01:03:28;;;;;;;4.10;2.10;;;9.40;99.90;;;9.28;69.89;99532.72;5397722;26;20497;-71
2024/04/10 01:06:02;;;;;;;5.77;2.43;;;9.40;99.90;;;9.28;69.81;99535.34;5424733;26;20476;-73
2024/04/10 01:08:29;;;;;;;6.00;2.30;;;9.30;99.90;;;9.32;69.91;99540.41;5416722;26;20523;-73
2024/04/10 01:10:57;;;;;;;7.60;2.90;;;9.30;99.90;;;9.32;69.74;99540.41;5419433;26;20481;-71
2024/04/10 01:13:25;;;;;;;8.50;3.00;;;9.30;99.90;;;9.25;70.31;99551.28;5423546;26;20576;-72
2024/04/10 01:15:50;;;;;;;5.30;2.57;;;9.30;99.90;;;9.24;70.33;99551.38;5411533;26;20529;-72
2024/04/10 01:18:16;;;;;;;4.43;2.30;;;9.30;99.90;;;8.97;71.12;99539.03;5400935;26;21302;-72
2024/04/10 01:20:42;;;;;;;8.00;2.40;;;9.20;99.90;;;8.86;71.65;99548.47;5420629;26;20282;-73
2024/04/10 01:23:08;;;;;;;4.43;2.40;;;9.10;99.90;;;8.78;72.14;99541.94;5424251;26;20737;-71
2024/04/10 01:25:33;;;;;;;5.03;2.43;;;9.00;99.90;;;8.87;71.89;99547.56;5409446;26;20322;-72
2024/04/10 01:27:59;;;;;;;5.40;2.70;;;9.00;99.90;;;8.73;72.10;99549.25;5432041;26;20252;-72
2024/04/10 01:30:25;;;;;;;4.40;2.20;;;8.90;99.90;;;8.63;72.74;99549.84;5402228;26;20240;-72
2024/04/10 01:32:51;;;;;;;4.20;2.57;;;8.80;99.90;;;8.52;73.20;99546.13;5410952;26;20260;-72
2024/04/10 01:35:17;;;;;;;6.27;2.50;;;8.70;99.90;;;8.62;72.88;99545.56;5396354;26;20245;-71
2024/04/10 01:37:43;;;;;;;7.70;2.60;;;8.70;99.90;;;8.63;72.59;99540.22;5443479;26;20420;-73
2024/04/10 01:40:11;;;;;;;6.40;2.73;;;8.80;99.90;;;8.53;73.25;99558.25;5405326;26;20534;-72
2024/04/10 01:42:42;;;;;;;4.63;2.33;;;8.70;99.90;;;8.42;73.64;99565.94;5415490;26;20524;-71
2024/04/10 01:45:08;;;;;;;5.73;2.63;;;8.60;99.90;;;8.39;73.73;99571.34;5405480;26;20483;-72
2024/04/10 01:47:33;;;;;;;6.30;2.50;;;8.60;99.90;;;8.36;73.80;99567.09;5412055;26;20465;-72
2024/04/10 01:49:59;;;;;;;6.73;2.47;;;8.60;99.90;;;8.31;74.33;99571.72;5402178;26;20332;-72
2024/04/10 01:52:25;;;;;;;6.60;2.30;;;8.50;99.90;;;8.32;74.44;99573.44;5403129;26;20718;-73
2024/04/10 01:54:52;;;;;;;4.40;2.23;;;8.50;99.90;;;8.36;74.44;99576.72;5402409;26;20244;-72
2024/04/10 01:57:17;;;;;;;6.13;2.60;;;8.50;99.90;;;8.38;74.12;99580.09;5422087;26;20344;-71
2024/04/10 01:59:43;;;;;;;7.83;2.63;;;8.50;99.90;;;8.36;73.97;99587.19;5399457;26;20581;-71
2024/04/10 02:02:09;;;;;;;4.50;2.20;;;8.40;99.90;;;8.45;73.93;99593.69;5414869;26;20288;-71
2024/04/10 02:04:35;;;;;;;8.43;2.43;;;8.40;99.90;;;8.41;73.92;99590.41;5383732;26;20350;-72
2024/04/10 02:07:02;;;;;;;7.63;2.50;;;8.50;99.90;;;8.46;73.85;99592.75;5405693;26;20243;-73
2024/04/10 02:09:28;;;;;;;4.50;2.40;;;8.50;99.90;;;8.47;73.43;99594.44;5415437;26;20275;-72
2024/04/10 02:11:54;;;;;;;3.93;2.40;;;8.50;99.90;;;8.54;73.30;99595.75;5395382;26;20573;-72
2024/04/10 02:14:20;;;;;;;8.40;2.67;;;8.50;99.90;;;8.56;73.13;99593.91;5411151;26;20488;-72
2024/04/10 02:16:46;;;;;;;6.43;2.60;;;8.60;99.90;;;8.47;73.49;99594.44;5398824;26;20549;-72
2024/04/10 02:19:12;;;;;;;5.40;2.50;;;8.60;99.90;;;8.40;73.48;99599.19;5404507;26;20303;-73
2024/04/10 02:21:38;;;;;;;5.30;2.13;;;8.50;99.90;;;8.35;73.62;99593.34;5399254;26;20493;-73
2024/04/10 02:24:09;;;;;;;5.30;2.77;;;8.50;99.90;;;8.29;74.03;99605.03;5408409;26;21147;-72
2024/04/10 02:26:34;;;;;;;4.33;2.30;;;8.50;99.90;;;8.32;74.12;99609.22;5411160;26;20480;-73
2024/04/10 02:29:00;;;;;;;6.03;2.20;;;8.40;99.90;;;8.19;74.54;99613.47;5402845;26;20537;-72
2024/04/10 02:31:26;;;;;;;9.47;2.83;;;8.40;99.90;;;8.17;74.43;99616.19;5405129;26;20277;-74
2024/04/10 02:33:53;;;;;;;6.03;2.50;;;8.30;99.90;;;8.21;74.12;99616.84;5401605;26;20473;-74
2024/04/10 02:36:18;;;;;;;5.17;2.40;;;8.30;99.90;;;8.18;74.34;99623.09;5390649;26;20251;-73
2024/04/10 02:38:44;;;;;;;7.30;2.40;;;8.30;99.90;;;8.09;74.98;99627.06;5400617;26;20538;-72
2024/04/10 02:41:10;;;;;;;6.10;2.27;;;8.30;99.90;;;8.19;74.76;99622.16;5397863;26;20486;-71
2024/04/10 02:43:36;;;;;;;6.60;2.50;;;8.30;99.90;;;8.24;74.27;99625.38;5401182;26;20517;-72
2024/04/10 02:46:07;;;;;;;4.23;2.50;;;8.30;99.90;;;8.19;74.21;99624.78;5415938;26;20364;-72
2024/04/10 02:48:33;;;;;;;3.83;2.40;;;8.30;99.90;;;8.16;74.42;99630.19;5403718;26;20597;-72
2024/04/10 02:50:59;;;;;;;4.10;2.23;;;8.30;99.90;;;8.21;73.84;99630.78;5396998;26;20486;-72
2024/04/10 02:53:24;;;;;;;6.20;2.50;;;8.30;99.90;;;8.17;74.34;99631.06;5404946;26;20294;-72
2024/04/10 02:55:53;;;;;;;8.00;2.60;;;8.30;99.90;;;8.05;74.69;99640.44;5414319;26;20597;-73
2024/04/10 02:58:19;;;;;;;9.80;2.20;;;8.20;99.90;;;8.09;74.51;99640.16;5413469;26;20331;-74
2024/04/10 03:00:49;;;;;;;5.20;2.60;;;8.20;99.90;;;8.16;74.06;99645.03;5412201;26;20462;-74
2024/04/10 03:03:17;;;;;;;4.07;2.10;;;8.20;99.90;;;8.19;73.75;99645.72;5375771;26;20471;-74
2024/04/10 03:05:46;;;;;;;4.77;2.17;;;8.20;99.90;;;8.23;73.37;99644.63;5372672;26;20567;-73
2024/04/10 03:08:13;;;;;;;5.23;2.50;;;8.20;99.90;;;8.23;73.32;99639.41;5385338;26;20555;-74
2024/04/10 03:10:39;;;;;;;4.60;2.30;;;8.20;99.90;;;8.19;73.49;99637.03;5376195;26;20589;-71
2024/04/10 03:13:07;;;;;;;9.57;2.60;;;8.20;99.90;;;8.15;73.29;99638.97;5386237;26;20475;-72
2024/04/10 03:15:33;;;;;;;6.73;2.60;;;8.20;99.90;;;8.05;74.13;99651.72;5367234;26;20541;-72
2024/04/10 03:17:59;;;;;;;5.73;2.50;;;8.20;99.90;;;7.95;74.11;99658.41;5372032;26;20542;-71
2024/04/10 03:20:25;;;;;;;6.53;2.63;;;8.10;99.90;;;7.83;74.67;99667.78;5376372;26;20474;-72
2024/04/10 03:22:51;;;;;;;5.60;2.47;;;8.10;99.90;;;7.71;75.65;99657.97;5371185;26;20782;-72
2024/04/10 03:25:17;;;;;;;5.23;2.53;;;8.00;99.90;;;7.69;75.71;99664.22;5380521;26;20574;-73
2024/04/10 03:27:43;;;;;;;9.43;2.70;;;7.90;99.90;;;7.49;76.31;99666.13;5377011;26;20485;-73
2024/04/10 03:30:10;;;;;;;5.93;3.13;;;7.90;99.90;;;7.16;77.96;99666.97;5412107;26;20528;-71
2024/04/10 03:32:39;;;;;;;8.23;3.43;;;7.80;99.90;;;7.00;79.42;99676.53;5377121;26;21134;-73
2024/04/10 03:35:05;;;;;;;8.07;3.70;;;7.60;99.90;;;7.12;79.32;99686.31;5387611;26;20470;-73
2024/04/10 03:37:31;;;;;;;8.53;3.80;;;7.50;99.90;;;7.28;78.50;99689.03;5374569;26;20472;-73
2024/04/10 03:39:57;;;;;;;9.40;4.20;;;7.50;99.90;;;7.35;77.66;99674.69;5373831;26;20237;-72
2024/04/10 03:42:23;;;;;;;8.13;4.03;;;7.50;99.90;;;7.32;77.12;99682.72;5367638;26;20471;-73
2024/04/10 03:44:49;;;;;;;8.03;4.33;;;7.50;99.90;;;7.26;77.80;99677.78;5364882;26;20251;-72
2024/04/10 03:47:14;;;;;;;7.67;4.60;;;7.50;99.90;;;7.31;77.00;99681.00;5376887;26;20790;-72
2024/04/10 03:49:40;;;;;;;9.07;4.60;;;7.50;99.90;;;7.31;77.06;99696.69;5365138;26;20495;-72
2024/04/10 03:52:06;;;;;;;10.00;4.60;;;7.50;99.90;;;7.21;77.84;99690.25;5372277;26;20251;-72
2024/04/10 03:54:32;;;;;;;7.70;4.07;;;7.50;99.90;;;6.99;78.72;99700.09;5350860;26;20281;-74
2024/04/10 03:56:58;;;;;;;7.50;4.20;;;7.40;99.90;;;6.94;78.97;99698.56;5382936;26;20254;-73
2024/04/10 03:59:26;;;;;;;9.17;4.10;;;7.30;99.90;;;6.98;79.22;99691.44;5363223;26;20617;-73
2024/04/10 04:01:52;;;;;;;7.27;3.30;;;7.30;99.90;;;6.65;80.69;99709.59;5363365;26;20901;-74
2024/04/10 04:04:18;;;;;;;9.93;3.80;;;7.20;99.90;;;6.77;80.81;99702.94;5382146;26;20536;-73
2024/04/10 04:06:45;;;;;;;7.60;4.10;;;7.20;99.90;;;6.79;80.48;99709.78;5425667;26;20525;-73
2024/04/10 04:09:11;;;;;;;8.30;4.40;;;7.10;99.90;;;6.88;80.18;99711.94;5361550;26;20393;-73
2024/04/10 04:11:37;;;;;;;5.33;3.43;;;7.10;99.90;;;7.00;79.56;99722.69;5378808;26;20481;-73
2024/04/10 04:14:03;;;;;;;7.83;3.73;;;7.10;99.90;;;7.11;79.25;99717.78;5368872;26;20496;-73
2024/04/10 04:16:32;;;;;;;10.17;3.57;;;7.20;99.90;;;7.18;78.52;99721.75;5360733;26;20534;-72
2024/04/10 04:18:58;;;;;;;6.57;3.53;;;7.20;99.90;;;7.15;78.44;99727.13;5374378;26;20475;-72
2024/04/10 04:21:24;;;;;;;7.10;3.50;;;7.30;99.90;;;7.07;78.21;99731.91;5377793;26;20842;-72
2024/04/10 04:23:50;;;;;;;10.27;3.57;;;7.30;99.90;;;7.02;78.73;99739.13;5384802;26;20246;-73
2024/04/10 04:26:16;;;;;;;8.60;3.47;;;7.20;99.90;;;7.10;78.09;99742.22;5386816;26;20320;-74
2024/04/10 04:28:42;;;;;;;6.43;3.20;;;7.20;99.90;;;6.96;79.04;99750.72;5385132;26;20475;-74
2024/04/10 04:31:08;;;;;;;6.23;2.70;;;7.20;99.90;;;6.78;79.80;99767.28;5373694;26;20291;-72
2024/04/10 04:33:36;;;;;;;10.83;3.10;;;7.10;99.90;;;6.80;80.08;99773.28;5379903;26;20824;-72
2024/04/10 04:36:02;;;;;;;9.73;2.90;;;7.10;99.90;;;6.72;80.00;99773.69;5372527;26;20249;-73
2024/04/10 04:38:28;;;;;;;5.83;3.03;;;7.10;99.90;;;6.68;80.67;99774.72;5367104;26;20473;-73
2024/04/10 04:40:53;;;;;;;5.30;3.07;;;7.00;99.90;;;6.55;81.28;99774.47;5372115;26;20524;-73
2024/04/10 04:43:19;;;;;;;6.83;3.37;;;6.90;99.90;;;6.49;81.48;99780.84;5374937;26;20354;-73
2024/04/10 04:45:45;;;;;;;8.70;3.20;;;6.90;99.90;;;6.44;81.92;99784.59;5383717;26;20308;-73
2024/04/10 04:48:11;;;;;;;6.03;2.90;;;6.80;99.90;;;6.31;81.97;99786.91;5368966;26;20701;-73
2024/04/10 04:50:41;;;;;;;6.70;2.60;;;6.70;99.90;;;6.44;81.72;99795.03;5373615;26;20246;-73
2024/04/10 04:53:10;;;;;;;7.07;2.90;;;6.70;99.90;;;6.55;81.02;99791.91;5381680;26;20335;-72
2024/04/10 04:55:36;;;;;;;6.23;2.90;;;6.70;99.90;;;6.65;80.87;99800.97;5410999;26;20536;-72
2024/04/10 04:58:03;;;;;;;6.13;3.20;;;6.80;99.90;;;6.81;80.15;99801.09;5375483;26;20555;-72
2024/04/10 05:00:29;;;;;;;6.80;3.00;;;6.80;99.90;;;6.92;79.79;99807.50;5363306;26;20587;-72
2024/04/10 05:02:56;;;;;;;6.80;2.80;;;6.90;99.90;;;6.89;79.37;99806.78;5365546;26;20482;-72
2024/04/10 05:05:22;;;;;;;8.63;2.83;;;7.00;99.90;;;6.97;79.05;99809.91;5374076;26;20489;-73
2024/04/10 05:07:49;;;;;;;5.40;2.87;;;7.00;99.90;;;7.10;78.78;99810.13;5381190;26;20460;-72
2024/04/10 05:10:16;;;;;;;8.40;2.83;;;7.00;99.90;;;7.16;78.22;99815.91;5375141;26;20484;-72
2024/04/10 05:12:42;;;;;;;7.63;3.27;;;7.10;99.90;;;7.24;77.67;99820.75;5379427;26;20469;-72
2024/04/10 05:15:12;;;;;;;8.63;3.30;;;7.20;99.90;;;7.40;77.82;99824.28;5372772;26;20478;-71
2024/04/10 05:17:51;;;;;;;10.00;3.20;;;7.20;99.90;;;7.87;76.75;99817.53;5371388;26;21938;-72
2024/04/10 05:20:17;;;;;;;6.50;2.70;;;7.40;99.90;;;8.10;75.83;99818.94;5369395;26;20473;-71
2024/04/10 05:22:46;;;;;;;6.10;2.80;;;7.60;99.90;;;8.35;74.58;99821.94;5373876;26;20649;-73
2024/04/10 05:25:12;;;;;;;6.27;3.30;;;7.70;99.90;;;8.64;74.19;99824.78;5379964;26;20260;-74
2024/04/10 05:27:38;;;;;;;6.67;3.17;;;8.00;99.90;;;9.03;72.96;99839.19;5371485;26;20471;-71
2024/04/10 05:30:07;;;;;;;6.03;3.30;;;8.30;99.90;;;9.32;70.84;99848.00;5364722;26;20835;-71
2024/04/10 05:32:37;;;;;;;8.20;3.80;;;8.60;99.90;;;9.52;69.25;99855.56;5370077;26;20527;-72
2024/04/10 05:35:10;;;;;;;5.50;3.27;;;8.90;99.90;;;9.88;67.37;99867.44;5379045;26;20522;-74
2024/04/10 05:37:36;;;;;;;9.47;4.20;;;9.20;99.90;;;10.58;65.92;99854.41;5366956;26;20467;-72
2024/04/10 05:40:13;;;;;;;9.63;3.20;;;9.40;99.90;;;11.01;62.50;99856.09;5380476;26;20540;-71
2024/04/10 05:42:41;;;;;;;11.67;3.37;;;9.80;99.90;;;11.72;61.13;99854.91;5367231;26;20469;-72
2024/04/10 05:45:09;;;;;;;12.73;4.40;;;10.10;99.90;;;12.53;58.63;99855.44;5372988;26;20480;-74
2024/04/10 05:47:48;;;;;;;7.13;3.10;;;10.50;99.90;;;12.74;56.34;99847.78;5363599;26;20475;-72
2024/04/10 05:50:14;;;;;;;5.70;3.10;;;11.00;99.90;;;13.17;56.36;99849.91;5363252;26;20563;-73
2024/04/10 05:52:41;;;;;;;7.80;2.63;;;11.40;99.90;;;13.53;54.80;99868.47;5363250;26;20511;-71
2024/04/10 05:55:08;;;;;;;9.37;4.53;;;11.80;99.90;;;13.08;53.64;99871.72;5365221;26;20316;-72
2024/04/10 05:57:34;;;;;;;7.50;3.60;;;12.10;99.90;;;12.66;55.42;99878.28;5367656;26;20462;-72
2024/04/10 06:00:00;;;;;;;8.53;2.90;;;12.20;99.90;;;12.55;56.06;99886.09;5367879;26;20501;-72
2024/04/10 06:02:27;;;;;;;7.53;2.70;;;12.10;99.90;;;12.69;56.09;99885.97;5367595;26;20558;-70
2024/04/10 06:04:55;;;;;;;10.03;2.93;;;12.10;99.90;;;12.92;55.05;99871.13;5369511;26;20249;-71
2024/04/10 06:07:21;;;;;;;5.13;2.50;;;12.30;99.90;;;13.08;54.61;99874.38;5377872;26;20467;-71
2024/04/10 06:09:54;;;;;;;5.30;2.80;;;12.40;99.90;;;12.87;54.55;99891.75;5362387;26;20484;-71
2024/04/10 06:12:20;;;;;;;8.13;2.90;;;12.50;99.90;;;12.60;55.06;99897.16;5367115;26;20475;-71
2024/04/10 06:14:51;;;;;;;7.60;2.87;;;12.40;99.90;;;12.68;55.08;99894.84;5358656;26;20537;-71
2024/04/10 06:17:16;;;;;;;9.47;4.20;;;12.50;99.90;;;12.63;55.04;99896.94;5356004;26;20482;-71
2024/04/10 06:19:42;;;;;;;7.23;3.17;;;12.50;99.90;;;12.66;55.67;99892.31;5356430;26;20521;-71
2024/04/10 06:22:08;;;;;;;7.30;2.60;;;12.50;99.90;;;12.69;55.09;99897.34;5366333;26;20330;-71
2024/04/10 06:24:34;;;;;;;6.90;2.90;;;12.60;99.90;;;12.88;55.39;99898.69;5366923;26;20257;-71
2024/04/10 06:27:02;;;;;;;7.23;2.97;;;12.60;99.90;;;13.13;54.62;99903.03;5372352;26;20350;-70
2024/04/10 06:29:28;;;;;;;9.13;3.17;;;12.70;99.90;;;13.20;54.44;99912.19;5379331;26;20524;-71
2024/04/10 06:31:53;;;;;;;10.33;3.30;;;12.90;99.90;;;13.52;53.54;99911.66;5376196;26;20462;-72
2024/04/10 06:34:19;;;;;;;8.00;3.00;;;13.00;99.90;;;13.78;52.22;99920.28;5363701;26;20861;-70
2024/04/10 06:36:45;;;;;;;7.23;2.80;;;13.30;99.90;;;13.68;52.66;99925.38;5363455;26;20299;-71
2024/04/10 06:39:10;;;;;;;7.00;2.90;;;13.40;99.90;;;13.10;53.99;99929.63;5365715;26;20240;-71
2024/04/10 06:41:36;;;;;;;10.27;2.70;;;13.30;99.90;;;12.66;55.46;99929.22;5349401;26;21018;-72
2024/04/10 06:44:02;;;;;;;5.97;2.50;;;13.00;99.90;;;12.06;57.66;99930.69;5357108;26;20286;-72
2024/04/10 06:46:30;;;;;;;7.97;2.73;;;12.70;99.90;;;12.14;57.24;99924.09;5368712;26;20256;-70
2024/04/10 06:48:56;;;;;;;9.20;2.83;;;12.30;99.90;;;12.17;57.39;99927.34;5375391;26;20261;-70
2024/04/10 06:51:22;;;;;;;12.37;3.33;;;12.30;99.90;;;12.33;57.06;99931.56;5366566;26;20880;-70
2024/04/10 06:53:47;;;;;;;6.90;2.30;;;12.20;99.90;;;12.81;56.56;99927.28;5365217;26;20241;-71
2024/04/10 06:56:16;;;;;;;6.80;2.73;;;12.40;99.90;;;13.37;55.55;99935.59;5360860;26;20268;-71
2024/04/10 06:58:43;;;;;;;8.87;3.30;;;12.70;99.90;;;13.90;53.08;99943.97;5371161;26;20240;-71
2024/04/10 07:01:09;;;;;;;7.20;3.00;;;13.00;99.90;;;13.95;52.23;99946.25;5371824;26;20560;-70
2024/04/10 07:03:37;;;;;;;10.63;3.17;;;13.30;99.90;;;13.67;53.30;99944.84;5366990;26;20812;-71
2024/04/10 07:06:09;;;;;;;9.83;3.30;;;13.50;99.90;;;13.89;52.22;99947.53;5372753;26;20527;-70
2024/04/10 07:08:37;;;;;;;10.90;2.80;;;13.50;99.90;;;14.33;51.73;99943.31;5385275;26;20578;-71
2024/04/10 07:11:04;;;;;;;9.33;2.97;;;13.70;99.90;;;14.16;51.62;99940.31;5369251;26;20552;-71
2024/04/10 07:13:34;;;;;;;13.20;4.03;;;13.80;99.90;;;13.58;52.75;99951.63;5367700;26;20497;-70
2024/04/10 07:16:02;;;;;;;11.97;3.13;;;13.70;99.90;;;13.63;52.93;99956.59;5372014;26;20455;-72
2024/04/10 07:18:29;;;;;;;10.90;2.90;;;13.70;99.90;;;13.84;54.83;99955.00;5376006;26;20478;-71
2024/04/10 07:21:06;;;;;;;7.30;3.27;;;13.60;99.90;;;14.39;52.46;99952.59;5368875;26;20486;-70
2024/04/10 07:23:34;;;;;;;11.30;3.60;;;13.80;99.90;;;14.53;50.96;99944.47;5376005;26;20465;-74
2024/04/10 07:26:14;;;;;;;13.10;3.70;;;14.00;99.90;;;15.02;50.16;99948.53;5378338;26;20553;-70
2024/04/10 07:28:56;;;;;;;9.70;3.30;;;14.30;99.90;;;15.30;49.14;99944.50;5374553;26;20479;-73
2024/04/10 07:31:35;;;;;;;9.47;3.30;;;14.50;99.90;;;15.41;48.93;99943.63;5368183;26;20474;-72
2024/04/10 07:34:03;;;;;;;10.10;3.50;;;14.80;99.90;;;15.51;48.13;99941.09;5362692;26;20545;-70
2024/04/10 07:36:33;;;;;;;7.40;3.07;;;14.90;99.90;;;15.68;48.10;99943.19;5360710;26;20526;-70
2024/04/10 07:38:59;;;;;;;8.20;3.30;;;15.10;99.90;;;15.51;48.14;99951.69;5377345;26;20511;-70
2024/04/10 07:41:27;;;;;;;7.10;3.10;;;15.10;99.90;;;15.77;48.10;99957.50;5373429;26;20482;-70
2024/04/10 07:43:53;;;;;;;7.33;3.20;;;15.20;99.90;;;16.18;47.65;99956.69;5371385;26;20479;-72
2024/04/10 07:46:20;;;;;;;9.80;2.90;;;15.50;99.90;;;16.74;46.67;99962.53;5366981;26;20475;-71
2024/04/10 07:48:52;;;;;;;10.03;3.53;;;15.80;99.90;;;16.44;47.23;99972.19;5360125;26;20287;-71
2024/04/10 07:51:18;;;;;;;9.87;3.20;;;16.00;99.90;;;16.21;47.00;99959.06;5358024;26;20489;-71
2024/04/10 07:53:44;;;;;;;14.23;3.43;;;15.90;99.90;;;16.58;46.81;99965.69;5367002;26;20555;-71
2024/04/10 07:56:13;;;;;;;10.03;3.00;;;16.00;99.90;;;16.40;45.79;99962.81;5380540;26;20796;-71
2024/04/10 07:58:40;;;;;;;9.87;3.43;;;16.10;99.90;;;15.67;47.15;99967.19;5363562;26;20456;-71
2024/04/10 08:01:06;;;;;;;17.40;3.80;;;16.00;99.90;;;15.16;49.43;99970.41;5364563;26;20683;-71
2024/04/10 08:03:33;;;;;;;7.80;3.20;;;15.50;99.90;;;15.27;48.48;99976.53;5367449;26;21891;-71
2024/04/10 08:06:03;;;;;;;11.53;3.70;;;15.30;99.90;;;15.22;47.46;99976.03;5357264;26;20484;-71
2024/04/10 08:08:29;;;;;;;8.47;3.40;;;15.00;99.90;;;14.73;48.80;99984.38;5368488;26;20522;-72
2024/04/10 08:11:03;;;;;;;12.67;3.20;;;14.90;99.90;;;14.36;49.48;99993.31;5371576;26;20483;-71
2024/04/10 08:13:31;;;;;;;11.57;3.40;;;14.50;99.90;;;14.28;50.14;99995.72;5363197;26;20524;-71
2024/04/10 08:16:05;;;;;;;9.10;3.13;;;14.30;99.90;;;14.60;49.86;99995.09;5373087;26;20539;-72
2024/04/10 08:18:38;;;;;;;10.70;3.27;;;14.30;99.90;;;14.72;49.46;100015.28;5372394;26;20540;-72
2024/04/10 08:21:14;;;;;;;7.57;3.27;;;14.20;99.90;;;14.68;48.90;100013.00;5362047;26;20481;-71
2024/04/10 08:23:43;;;;;;;9.13;3.27;;;14.30;99.90;;;14.95;48.54;100007.38;5366046;26;21332;-72
2024/04/10 08:26:11;;;;;;;13.50;3.00;;;14.50;99.90;;;14.73;48.42;99998.44;5365235;26;21816;-71
2024/04/10 08:28:45;;;;;;;12.83;3.50;;;14.50;99.90;;;14.01;50.56;100008.38;5365999;26;20479;-71
2024/04/10 08:31:14;;;;;;;11.20;3.40;;;14.30;99.90;;;14.16;50.01;100012.50;5359460;26;20567;-72
2024/04/10 08:33:43;;;;;;;15.63;3.60;;;14.20;99.90;;;14.16;50.38;100012.50;5366744;26;20473;-70
2024/04/10 08:36:12;;;;;;;12.00;3.20;;;14.10;99.90;;;14.46;49.36;100011.97;5357040;26;20593;-73
2024/04/10 08:38:38;;;;;;;11.70;2.90;;;14.10;99.90;;;14.63;48.74;100023.06;5371205;26;20476;-71
2024/04/10 08:41:17;;;;;;;8.40;3.30;;;14.30;99.90;;;14.78;48.90;100027.19;5359847;26;20624;-71
2024/04/10 08:43:48;;;;;;;8.13;3.20;;;14.30;99.90;;;14.82;48.37;100029.50;5372228;26;20816;-71
2024/04/10 08:46:17;;;;;;;7.30;3.07;;;14.40;99.90;;;15.14;48.20;100039.34;5363185;26;20553;-71
2024/04/10 08:48:45;;;;;;;17.33;3.20;;;14.50;99.90;;;15.48;46.88;100032.22;5366097;26;20820;-72
2024/04/10 08:51:16;;;;;;;11.23;3.00;;;14.70;99.90;;;16.03;45.68;100045.44;5364485;26;20483;-72
2024/04/10 08:53:44;;;;;;;6.87;2.83;;;15.00;99.90;;;16.40;45.11;100048.53;5367431;26;20450;-73
2024/04/10 08:56:11;;;;;;;8.10;2.80;;;15.30;99.90;;;16.24;45.23;100047.28;5369876;26;20478;-71
2024/04/10 08:58:37;;;;;;;11.67;3.00;;;15.50;99.90;;;16.65;45.05;100043.81;5373754;26;20462;-72
2024/04/10 09:01:05;;;;;;;9.73;2.63;;;15.70;99.90;;;16.61;44.49;100050.31;5375427;26;20603;-74
2024/04/10 09:03:34;;;;;;;10.07;3.27;;;15.90;99.90;;;15.87;44.88;100060.94;5365189;26;20464;-73
2024/04/10 09:06:03;;;;;;;8.63;3.70;;;15.70;99.90;;;15.84;45.61;100066.47;5363354;26;20537;-72
2024/04/10 09:08:29;;;;;;;10.13;2.80;;;15.50;99.90;;;16.32;44.63;100064.22;5384617;26;20473;-72
2024/04/10 09:10:55;;;;;;;11.47;3.10;;;15.60;99.90;;;16.55;43.95;100061.44;5374956;26;20480;-71
2024/04/10 09:13:20;;;;;;;11.40;3.30;;;16.10;99.90;;;16.27;44.73;100073.53;5378046;26;20240;-72
2024/04/10 09:15:47;;;;;;;9.80;3.70;;;15.80;99.90;;;16.71;44.35;100061.84;5359130;26;20299;-72
2024/04/10 09:18:13;;;;;;;13.33;3.77;;;15.90;99.90;;;17.19;42.88;100055.13;5369803;26;20353;-72
2024/04/10 09:20:39;;;;;;;13.40;3.30;;;16.20;99.90;;;17.21;42.81;100053.16;5363644;26;20484;-71
2024/04/10 09:23:09;;;;;;;7.73;3.07;;;16.40;99.90;;;17.02;43.45;100049.44;5361273;26;21084;-71
2024/04/10 09:25:37;;;;;;;12.50;3.50;;;16.40;99.90;;;17.50;42.62;100050.63;5376240;26;20549;-71
2024/04/10 09:28:05;;;;;;;8.73;2.87;;;16.60;99.90;;;16.92;41.09;100053.88;5379585;26;21363;-71
2024/04/10 09:30:33;;;;;;;8.63;3.37;;;16.60;99.90;;;16.69;41.50;100055.81;5369424;26;20555;-72
2024/04/10 09:33:04;;;;;;;7.67;3.20;;;16.50;99.90;;;17.27;42.09;100056.13;5366418;26;20533;-71
2024/04/10 09:35:31;;;;;;;9.27;3.17;;;16.60;99.90;;;17.66;40.78;100047.44;5375942;26;20470;-71
2024/04/10 09:37:59;;;;;;;6.20;2.60;;;16.70;99.90;;;18.11;39.60;100052.25;5377885;26;20473;-71
2024/04/10 09:40:27;;;;;;;7.20;3.00;;;17.00;99.90;;;18.09;38.76;100051.56;5412914;26;20534;-73
2024/04/10 09:43:07;;;;;;;6.37;2.97;;;17.20;99.90;;;18.78;38.95;100056.69;5375554;26;20523;-71
2024/04/10 09:45:44;;;;;;;8.70;3.00;;;17.60;99.90;;;19.19;38.76;100049.25;5368414;26;20475;-71
2024/04/10 09:48:09;;;;;;;8.97;2.90;;;17.90;99.90;;;19.05;37.98;100047.09;5379618;26;20547;-70
2024/04/10 09:50:38;;;;;;;9.17;3.30;;;18.00;99.90;;;18.51;38.33;100047.63;5369946;26;20485;-71
2024/04/10 09:53:06;;;;;;;7.43;2.97;;;18.00;99.90;;;18.56;39.14;100049.00;5378913;26;20315;-72
2024/04/10 09:55:39;;;;;;;9.30;3.03;;;17.90;99.90;;;18.64;38.50;100044.63;5375889;26;20553;-74
2024/04/10 09:58:12;;;;;;;11.57;3.23;;;17.90;99.90;;;18.85;37.02;100060.47;5375270;26;20554;-71
2024/04/10 10:00:38;;;;;;;5.57;2.57;;;18.00;99.90;;;19.16;36.49;100053.03;5368018;26;20482;-71
2024/04/10 10:03:11;;;;;;;7.17;3.20;;;18.20;99.90;;;17.90;37.44;100045.25;5370755;26;20478;-72
2024/04/10 10:05:38;;;;;;;7.13;3.13;;;18.20;99.90;;;16.90;40.01;100055.84;5364986;26;21056;-71
2024/04/10 10:08:12;;;;;;;6.30;2.80;;;17.50;99.90;;;17.01;38.37;100047.78;5370230;26;20526;-72
2024/04/10 10:10:56;;;;;;;6.90;2.80;;;17.10;99.90;;;16.41;39.95;100047.53;5363890;26;20605;-71
2024/04/10 10:13:40;;;;;;;7.13;2.80;;;16.80;99.90;;;16.06;40.74;100047.84;5373155;26;20526;-71
2024/04/10 10:16:06;;;;;;;9.03;3.30;;;16.60;99.90;;;16.38;40.52;100052.28;5359668;26;20470;-72
2024/04/10 10:18:32;;;;;;;7.90;3.13;;;16.40;99.90;;;16.65;39.85;100052.59;5370905;26;20538;-75
2024/04/10 10:21:06;;;;;;;6.83;2.80;;;16.40;99.90;;;17.21;38.85;100037.22;5360260;26;20240;-72
2024/04/10 10:23:38;;;;;;;8.10;3.30;;;16.60;99.90;;;17.87;38.46;100042.03;5364767;26;20291;-72
2024/04/10 10:26:05;;;;;;;7.50;3.10;;;16.90;99.90;;;18.46;36.72;100039.19;5395716;26;20941;-71